Terminal Aerodrome Forecast
Issued by NWS Houston/Galveston, TX

Home | Current Version | Previous Version | Text Only | Print | Product List | Glossary On
Versions: 1 2 3 4 5 6 7 8 9 10 11 12 13 14 15 16 17 18 19 20 21 22 23 24 25 26 27 28 29 30 31 32 33
000
FTUS44 KHGX 050802 AAA
TAFGLS
TAF AMD
KGLS 050802Z 0508/0606 02019G25KT P6SM VCTS OVC007CB
      TEMPO 0508/0510 3SM SHRA BR OVC007
     FM051000 03019G24KT 6SM -RA BR VCTS OVC005CB
     FM051900 35013G19KT 6SM BR VCSH BKN007 OVC015
     FM060200 29013G19KT P6SM SCT007 OVC015=

USA.gov is the U.S. government's official web portal to all federal, state and local government web resources and services.